Latest Weather Observations for Maningrida Airport

IDD60801

Issued at 7:03 pm CST Wednesday 1 April 2015 (issued every 30 minutes, with the page automatically refreshed every 10 minutes)

About weather observations | Map of weather stations | Latest weather observations for NT | Other Formats
Station Details ID: 014405 Name: MANINGRIDA AIRPORT Lat: -12.06 Lon: 134.23 Height: 28.1 m
Data from the previous 72 hours. | See also: Recent months at Maningrida Airport
Date/Time
CST
Temp
°C
App
Temp
°C
Dew
Point
Rel
Hum
%
Delta-T
°C
Wind Press
QNH
hPa
Press
MSL
hPa
Rain
since 9 am
mm
Dir
 
Spd
km/h
Gust
km/h
Spd
kts
Gust
kts
01/07:00pm 25.2 30.1 23.1 88 1.4 S 2 9 1 5 1009.1 1008.9 0.4
01/06:30pm 25.0 28.6 22.3 85 1.8 S 7 9 4 5 1009.0 1008.8 0.4
01/06:00pm 25.5 28.5 22.0 81 2.3 SSE 9 13 5 7 1009.1 1008.9 0.4
01/05:30pm 25.2 25.9 21.5 80 2.5 SE 20 33 11 18 1008.9 1008.7 0.4
01/05:23pm 25.6 25.3 20.4 73 3.4 ESE 22 35 12 19 1009.0 1008.8 0.4
01/05:00pm 30.8 33.5 21.3 57 6.4 NE 9 26 5 14 1008.4 1008.2 0.4
01/04:30pm 31.6 34.6 21.2 54 7.0 NE 7 22 4 12 1008.2 1008.0 0.4
01/04:00pm 32.6 36.1 23.5 58 6.3 NNE 11 28 6 15 1008.1 1007.9 0.4
01/03:30pm 32.1 34.0 22.8 58 6.4 NE 17 24 9 13 1008.1 1007.9 0.4
01/03:00pm 32.6 36.4 22.7 56 6.8 NE 7 22 4 12 1008.4 1008.2 0.4
01/02:30pm 32.5 36.2 23.2 58 6.4 ENE 9 24 5 13 1008.6 1008.4 0.4
01/02:00pm 32.5 36.5 23.7 59 6.1 NE 9 26 5 14 1008.9 1008.7 0.4
01/01:30pm 32.3 36.1 22.4 56 6.8 ENE 6 20 3 11 1009.4 1009.3 0.4
01/01:00pm 32.0 35.2 22.4 57 6.6 - 9 24 5 13 1009.9 1009.8 0.4
01/12:30pm 32.0 36.0 22.7 58 6.4 E 6 20 3 11 1010.5 1010.4 0.4
01/12:00pm 31.7 35.6 21.8 55 6.7 E 4 13 2 7 1010.8 1010.7 0.4
01/11:30am 31.4 33.0 20.0 50 7.5 E 11 19 6 10 1011.5 1011.3 0.4
01/11:00am 30.8 34.3 21.9 59 6.0 ESE 6 19 3 10 1011.8 1011.6 0.0
01/10:30am 30.9 34.4 22.8 62 5.6 E 9 19 5 10 1012.3 1012.1 0.0
01/10:00am 30.4 34.8 23.8 68 4.6 E 7 17 4 9 1012.4 1012.2 0.0
01/09:30am 29.6 33.5 24.2 73 3.8 E 11 17 6 9 1012.4 1012.2 0.0
01/09:00am 29.1 34.2 25.5 81 2.5 ESE 9 13 5 7 1012.2 1012.0 0.0
01/08:30am 27.9 33.2 25.9 89 1.4 S 9 11 5 6 1012.2 1012.0 0.0
01/08:00am 26.9 33.1 26.4 97 0.4 S 6 7 3 4 1011.9 1011.7 0.0
01/07:30am 25.4 31.0 25.4 100 0.0 S 6 9 3 5 1011.7 1011.5 0.0
01/07:00am 23.6 29.2 23.6 100 0.0 CALM 0 0 0 0 1011.4 1011.1 0.0
01/06:30am 23.2 27.4 23.2 100 0.0 SSW 6 7 3 4 1011.0 1010.8 0.0
01/06:00am 23.5 27.9 23.5 100 0.0 SSW 6 7 3 4 1010.5 1010.3 0.0
01/05:30am 23.4 27.6 23.4 100 0.0 S 7 9 4 5 1010.2 1010.0 0.0
01/05:00am 24.1 28.9 24.1 100 0.0 SE 6 7 3 4 1009.9 1009.7 0.0
01/04:30am 23.9 28.0 23.9 100 0.0 SE 9 11 5 6 1009.8 1009.6 0.0
01/04:00am 23.8 28.4 23.8 100 0.0 S 6 6 3 3 1009.8 1009.6 0.0
01/03:30am 23.9 28.4 23.9 100 0.0 S 7 7 4 4 1010.0 1009.8 0.0
01/03:00am 24.4 29.2 24.4 100 0.0 S 7 9 4 5 1010.1 1009.9 0.0
01/02:30am 24.3 30.3 24.3 100 0.0 CALM 0 0 0 0 1010.3 1010.1 0.0
01/02:00am 24.8 31.1 24.8 100 0.0 CALM 0 0 0 0 1010.3 1010.1 0.0
01/01:30am 25.8 31.2 25.5 98 0.2 SSE 7 9 4 5 1010.8 1010.6 0.0
01/01:00am 26.0 31.4 26.0 100 0.0 SE 9 11 5 6 1011.1 1010.9 0.0
01/12:30am 25.9 31.1 25.7 99 0.1 SE 9 11 5 6 1011.6 1011.3 0.0
01/12:00am 25.7 31.3 25.7 100 0.0 SSE 7 11 4 6 1011.7 1011.5 0.0
 
Date/Time
CST
Temp
°C
App
Temp
°C
Dew
Point
Rel
Hum
%
Delta-T
°C
Wind Press
QNH
hPa
Press
MSL
hPa
Rain
since 9 am
mm
Dir
 
Spd
km/h
Gust
km/h
Spd
kts
Gust
kts
31/11:30pm 25.5 32.3 25.5 100 0.0 CALM 0 6 0 3 1011.8 1011.6 0.0
31/11:00pm 26.3 33.2 26.3 100 0.0 SE 2 6 1 3 1011.9 1011.7 0.0
31/10:30pm 26.2 32.1 26.2 100 0.0 SSE 7 7 4 4 1011.5 1011.2 0.0
31/10:00pm 26.4 32.6 26.4 100 0.0 SSW 6 7 3 4 1011.6 1011.3 0.0
31/09:30pm 26.2 32.3 26.2 100 0.0 SSW 6 7 3 4 1011.5 1011.2 0.0
31/09:00pm 26.5 32.3 25.8 96 0.5 SW 6 9 3 5 1011.4 1011.1 0.0
31/08:30pm 27.2 32.7 25.6 91 1.1 SW 7 9 4 5 1011.0 1010.8 0.0
31/08:00pm 28.5 33.3 25.7 85 2.0 SSW 11 17 6 9 1010.8 1010.6 0.0
31/07:30pm 28.8 34.3 25.6 83 2.3 E 7 9 4 5 1010.2 1010.0 0.0
31/07:00pm 29.0 34.4 25.2 80 2.7 ENE 6 9 3 5 1009.9 1009.7 0.0
31/06:30pm 29.5 34.5 24.8 76 3.3 ENE 7 9 4 5 1009.7 1009.5 0.0
31/06:00pm 30.3 34.3 24.4 70 4.1 NE 11 17 6 9 1009.4 1009.2 0.0
31/05:30pm 31.4 35.7 24.3 66 5.0 E 9 13 5 7 1009.2 1009.0 0.0
31/05:00pm 31.4 35.3 24.3 66 5.0 NNE 11 17 6 9 1009.2 1009.0 0.0
31/04:30pm 31.6 34.9 24.5 66 5.0 ENE 15 19 8 10 1009.0 1008.8 0.0
31/04:00pm 31.3 34.0 24.2 66 5.0 NE 17 24 9 13 1009.1 1008.9 0.0
31/03:30pm 32.2 35.3 24.8 65 5.2 E 17 22 9 12 1009.1 1008.9 0.0
31/03:00pm 32.3 35.4 25.4 67 4.9 ENE 19 26 10 14 1009.1 1008.9 0.0
31/02:30pm 31.8 34.5 24.7 66 5.0 ENE 19 30 10 16 1009.5 1009.3 0.0
31/02:00pm 31.9 35.4 25.5 69 4.5 ENE 17 26 9 14 1009.9 1009.7 0.0
31/01:30pm 31.6 34.0 24.2 65 5.2 E 19 32 10 17 1010.4 1010.2 0.0
31/01:00pm 31.8 34.5 24.1 63 5.4 E 17 26 9 14 1010.9 1010.7 0.0
31/12:30pm 31.2 33.6 24.3 66 4.8 ENE 19 30 10 16 1011.6 1011.3 0.0
31/12:00pm 31.9 34.4 24.7 65 5.1 ENE 20 28 11 15 1012.0 1011.8 0.0
31/11:30am 31.3 35.2 24.9 69 4.5 E 13 20 7 11 1012.4 1012.2 0.0
31/11:00am 31.5 34.6 24.1 65 5.2 E 15 24 8 13 1012.7 1012.5 0.0
31/10:30am 31.0 34.7 25.1 71 4.2 ESE 15 20 8 11 1012.9 1012.7 0.0
31/10:00am 30.0 32.4 23.7 69 4.4 SE 17 24 9 13 1013.3 1013.1 0.0
31/09:30am 30.0 33.4 25.3 76 3.3 ESE 17 24 9 13 1013.3 1013.1 0.0
31/09:00am 28.4 32.1 25.2 83 2.2 SE 15 24 8 13 1013.4 1013.2 0.0
31/08:30am 27.6 31.6 25.6 89 1.4 SE 15 20 8 11 1013.3 1013.1 0.0
31/08:00am 26.7 30.8 25.8 95 0.6 SE 15 19 8 10 1013.2 1013.0 0.0
31/07:30am 25.7 30.1 25.7 100 0.0 SSE 13 17 7 9 1012.9 1012.7 0.0
31/07:00am 25.1 29.5 25.1 100 0.0 SE 11 13 6 7 1012.5 1012.3 0.0
31/06:30am 25.1 29.1 25.1 100 0.0 SE 13 15 7 8 1012.0 1011.8 0.0
31/06:00am 24.8 29.4 24.8 100 0.0 SSE 9 13 5 7 1011.7 1011.5 0.0
31/05:30am 24.8 29.0 24.8 100 0.0 SE 11 15 6 8 1011.4 1011.1 0.0
31/05:00am 25.0 29.0 25.0 100 0.0 SE 13 15 7 8 1010.9 1010.7 0.0
31/04:30am 25.0 29.4 25.0 100 0.0 SE 11 15 6 8 1010.8 1010.6 0.0
31/04:00am 24.8 29.4 24.8 100 0.0 SSE 9 13 5 7 1010.9 1010.7 0.0
31/03:30am 24.8 29.4 24.8 100 0.0 SSE 9 11 5 6 1011.1 1010.9 0.0
31/03:00am 25.0 29.4 25.0 100 0.0 SE 11 13 6 7 1011.3 1011.0 0.0
31/02:30am 25.1 29.5 25.1 100 0.0 SE 11 13 6 7 1011.5 1011.2 0.0
31/02:00am 25.2 29.7 25.2 100 0.0 SE 11 13 6 7 1011.5 1011.2 0.0
31/01:30am 25.3 29.9 25.3 100 0.0 SSE 11 13 6 7 1011.7 1011.5 0.0
31/01:00am 25.5 30.6 25.5 100 0.0 SSE 9 11 5 6 1012.0 1011.8 0.0
31/12:30am 25.5 30.8 25.3 99 0.1 SSE 7 11 4 6 1012.3 1012.1 0.0
31/12:00am 25.7 30.8 25.0 96 0.5 S 7 11 4 6 1012.6 1012.4 0.0
 
Date/Time
CST
Temp
°C
App
Temp
°C
Dew
Point
Rel
Hum
%
Delta-T
°C
Wind Press
QNH
hPa
Press
MSL
hPa
Rain
since 9 am
mm
Dir
 
Spd
km/h
Gust
km/h
Spd
kts
Gust
kts
30/11:30pm 25.8 30.9 25.6 99 0.1 SSE 9 11 5 6 1012.7 1012.5 0.0
30/11:00pm 25.8 31.4 25.8 100 0.0 SSE 7 9 4 5 1012.9 1012.7 0.0
30/10:30pm 25.6 31.3 25.6 100 0.0 S 6 7 3 4 1013.0 1012.8 0.0
30/10:00pm 25.8 31.4 25.8 100 0.0 S 7 9 4 5 1013.0 1012.8 0.0
30/09:30pm 25.7 31.3 25.7 100 0.0 S 7 9 4 5 1012.8 1012.6 0.0
30/09:00pm 26.0 32.0 26.0 100 0.0 S 6 11 3 6 1012.4 1012.2 0.0
30/08:30pm 26.6 31.6 24.8 90 1.3 S 7 11 4 6 1012.3 1012.1 0.0
30/08:00pm 26.9 31.6 24.9 89 1.4 S 9 15 5 8 1012.2 1012.0 0.0
30/07:30pm 27.2 32.5 25.0 88 1.5 SSE 6 7 3 4 1011.8 1011.6 0.0
30/07:00pm 27.2 31.5 24.3 84 2.0 SSE 9 13 5 7 1011.5 1011.2 0.0
30/06:30pm 28.1 30.5 23.7 77 3.0 SE 17 28 9 15 1011.0 1010.8 0.0
30/06:00pm 29.9 33.4 24.8 74 3.6 NE 15 20 8 11 1010.4 1010.2 0.0
30/05:30pm 30.5 34.2 24.6 70 4.1 ENE 13 20 7 11 1010.3 1010.1 0.0
30/05:00pm 30.6 33.8 24.3 69 4.4 ENE 15 20 8 11 1010.2 1010.0 0.0
30/04:30pm 30.8 33.5 24.2 68 4.6 NE 17 26 9 14 1010.1 1009.9 0.0
30/04:00pm 31.5 34.1 23.9 64 5.3 NE 17 28 9 15 1010.1 1009.9 0.0
30/03:30pm 32.2 35.0 24.3 63 5.5 ENE 17 26 9 14 1010.1 1009.9 0.0
30/03:00pm 31.9 33.8 23.7 62 5.7 ENE 20 30 11 16 1010.3 1010.1 0.0
30/02:30pm 31.7 33.5 23.5 62 5.7 E 20 28 11 15 1010.5 1010.3 0.0
30/02:00pm 31.6 32.9 23.4 61 5.7 ENE 22 33 12 18 1010.7 1010.5 0.0
30/01:30pm 32.1 33.9 24.2 63 5.5 E 22 30 12 16 1011.1 1010.9 0.0
30/01:00pm 31.9 34.6 24.2 63 5.4 ENE 17 28 9 15 1011.6 1011.3 0.0
30/12:30pm 31.1 32.7 23.2 63 5.4 ENE 20 32 11 17 1012.1 1011.9 0.0
30/12:00pm 30.7 32.0 23.4 65 5.0 E 22 30 12 16 1012.7 1012.5 0.0
30/11:30am 30.6 31.9 23.3 65 5.0 E 22 33 12 18 1013.1 1012.9 0.0
30/11:00am 30.2 31.2 22.9 65 5.0 ENE 22 35 12 19 1013.3 1013.1 0.0
30/10:30am 29.7 30.6 23.4 69 4.3 E 24 33 13 18 1013.6 1013.4 0.0
30/10:00am 29.3 31.1 23.3 70 4.1 E 19 28 10 15 1013.7 1013.5 0.0
30/09:30am 28.7 30.9 24.0 76 3.3 E 19 26 10 14 1013.7 1013.5 0.0
30/09:00am 28.3 31.6 25.1 83 2.2 E 17 24 9 13 1013.7 1013.5 0.0
30/08:30am 27.3 31.2 24.9 87 1.7 E 13 20 7 11 1013.5 1013.3 0.0
30/08:00am 26.2 29.9 25.2 94 0.7 ESE 15 19 8 10 1013.1 1012.9 0.0
30/07:30am 25.0 29.4 25.0 100 0.0 ESE 11 15 6 8 1012.9 1012.7 0.0
30/07:00am 23.5 27.3 23.5 100 0.0 SSE 9 11 5 6 1012.5 1012.3 0.0
30/06:30am 23.0 26.2 23.0 100 0.0 SE 11 11 6 6 1012.0 1011.8 0.0
30/06:00am 23.2 26.9 23.2 100 0.0 SSE 9 11 5 6 1011.7 1011.5 0.0
30/05:30am 23.4 27.2 23.4 100 0.0 SSE 9 9 5 5 1011.5 1011.2 0.0
30/05:00am 23.4 27.2 23.4 100 0.0 SSE 9 11 5 6 1011.3 1011.0 0.0
30/04:30am 23.6 27.9 23.6 100 0.0 SSE 7 7 4 4 1011.0 1010.8 0.0
30/04:00am 24.1 28.9 24.1 100 0.0 SE 6 7 3 4 1010.9 1010.7 0.0
30/03:30am 24.7 29.3 24.7 100 0.0 ESE 9 11 5 6 1011.0 1010.8 0.0
30/03:00am 25.2 29.3 25.2 100 0.0 SE 13 17 7 9 1011.1 1010.9 0.0
30/02:30am 25.3 29.5 25.3 100 0.0 SE 13 15 7 8 1011.4 1011.1 0.0
30/02:00am 25.4 30.0 25.4 100 0.0 SE 11 13 6 7 1011.7 1011.5 0.0
30/01:30am 25.8 30.7 25.8 100 0.0 SE 11 15 6 8 1012.0 1011.8 0.0
30/01:00am 26.2 31.0 26.2 100 0.0 ESE 13 19 7 10 1012.2 1012.0 0.0
30/12:30am 26.6 31.1 26.4 99 0.1 SE 15 20 8 11 1012.7 1012.5 0.0
30/12:00am 26.0 31.0 26.0 100 0.0 SE 11 15 6 8 1012.9 1012.7 0.0
 
Date/Time
CST
Temp
°C
App
Temp
°C
Dew
Point
Rel
Hum
%
Delta-T
°C
Wind Press
QNH
hPa
Press
MSL
hPa
Rain
since 9 am
mm
Dir
 
Spd
km/h
Gust
km/h
Spd
kts
Gust
kts
29/11:30pm 26.4 32.1 26.4 100 0.0 SE 9 11 5 6 1013.2 1013.0 0.0
29/11:00pm 26.8 32.7 26.8 100 0.0 ESE 9 11 5 6 1013.1 1012.9 0.0
29/10:30pm 26.8 32.7 26.8 100 0.0 ESE 9 11 5 6 1013.0 1012.8 0.0
29/10:00pm 26.5 32.6 26.5 100 0.0 ESE 7 9 4 5 1013.0 1012.8 0.0
29/09:30pm 26.6 32.6 26.3 98 0.2 ESE 7 9 4 5 1012.9 1012.7 0.0
29/09:00pm 28.1 33.3 25.7 87 1.7 E 9 19 5 10 1012.6 1012.4 0.0
29/08:30pm 28.2 32.7 25.2 84 2.1 NE 11 15 6 8 1012.0 1011.8 0.0
29/08:00pm 28.0 33.3 25.2 85 2.0 E 7 11 4 6 1011.9 1011.7 0.0
29/07:30pm 28.4 33.7 25.0 82 2.4 ENE 6 7 3 4 1011.4 1011.1 0.0

Other Formats:

Comma delimited format used in spreadsheet applications
http://www.bom.gov.au/fwo/IDD60801/IDD60801.95142.axf

JavaScript Object Notation format (JSON) in row-major order
http://www.bom.gov.au/fwo/IDD60801/IDD60801.95142.json